sensor_id;sensor_type;location;lat;lon;timestamp;P1;durP1;ratioP1;P2;durP2;ratioP2
17404;SDS011;8820;54.604;18.226;2024-01-25T00:00:33;11.97;;;4.40;;
17404;SDS011;8820;54.604;18.226;2024-01-25T00:03:01;21.60;;;7.57;;
17404;SDS011;8820;54.604;18.226;2024-01-25T00:05:30;11.17;;;4.83;;
17404;SDS011;8820;54.604;18.226;2024-01-25T00:07:59;17.67;;;4.87;;
17404;SDS011;8820;54.604;18.226;2024-01-25T00:10:27;15.33;;;5.57;;
17404;SDS011;8820;54.604;18.226;2024-01-25T00:12:55;11.50;;;4.27;;
17404;SDS011;8820;54.604;18.226;2024-01-25T00:15:24;14.47;;;4.97;;
17404;SDS011;8820;54.604;18.226;2024-01-25T00:17:53;17.57;;;5.50;;
17404;SDS011;8820;54.604;18.226;2024-01-25T00:20:23;16.13;;;4.53;;
17404;SDS011;8820;54.604;18.226;2024-01-25T00:22:51;15.80;;;4.60;;
17404;SDS011;8820;54.604;18.226;2024-01-25T00:25:20;20.13;;;5.00;;
17404;SDS011;8820;54.604;18.226;2024-01-25T00:27:48;22.57;;;5.27;;
17404;SDS011;8820;54.604;18.226;2024-01-25T00:30:16;22.13;;;5.10;;
17404;SDS011;8820;54.604;18.226;2024-01-25T00:32:45;18.83;;;4.57;;
17404;SDS011;8820;54.604;18.226;2024-01-25T00:35:15;15.57;;;4.67;;
17404;SDS011;8820;54.604;18.226;2024-01-25T00:37:44;20.97;;;6.13;;
17404;SDS011;8820;54.604;18.226;2024-01-25T00:40:13;17.20;;;4.50;;
17404;SDS011;8820;54.604;18.226;2024-01-25T00:42:42;18.03;;;5.47;;
17404;SDS011;8820;54.604;18.226;2024-01-25T00:45:13;17.30;;;4.50;;
17404;SDS011;8820;54.604;18.226;2024-01-25T00:47:41;16.87;;;5.20;;
17404;SDS011;8820;54.604;18.226;2024-01-25T00:50:10;14.57;;;4.47;;
17404;SDS011;8820;54.604;18.226;2024-01-25T00:52:41;18.03;;;5.03;;
17404;SDS011;8820;54.604;18.226;2024-01-25T00:55:10;22.93;;;6.80;;
17404;SDS011;8820;54.604;18.226;2024-01-25T00:57:40;22.60;;;5.10;;
17404;SDS011;8820;54.604;18.226;2024-01-25T01:00:09;17.57;;;4.40;;
17404;SDS011;8820;54.604;18.226;2024-01-25T01:02:39;18.80;;;5.27;;
17404;SDS011;8820;54.604;18.226;2024-01-25T01:05:10;23.07;;;5.87;;
17404;SDS011;8820;54.604;18.226;2024-01-25T01:07:39;16.13;;;4.63;;
17404;SDS011;8820;54.604;18.226;2024-01-25T01:10:09;13.33;;;4.90;;
17404;SDS011;8820;54.604;18.226;2024-01-25T01:12:40;27.13;;;5.70;;
17404;SDS011;8820;54.604;18.226;2024-01-25T01:15:09;22.67;;;6.30;;
17404;SDS011;8820;54.604;18.226;2024-01-25T01:17:37;22.67;;;5.27;;
17404;SDS011;8820;54.604;18.226;2024-01-25T01:20:06;18.93;;;5.93;;
17404;SDS011;8820;54.604;18.226;2024-01-25T01:22:35;26.83;;;5.83;;
17404;SDS011;8820;54.604;18.226;2024-01-25T01:25:05;28.80;;;6.73;;
17404;SDS011;8820;54.604;18.226;2024-01-25T01:27:33;23.07;;;5.57;;
17404;SDS011;8820;54.604;18.226;2024-01-25T01:30:02;20.97;;;5.80;;
17404;SDS011;8820;54.604;18.226;2024-01-25T01:32:31;27.03;;;6.30;;
17404;SDS011;8820;54.604;18.226;2024-01-25T01:34:59;25.13;;;5.77;;
17404;SDS011;8820;54.604;18.226;2024-01-25T01:37:28;25.70;;;6.57;;
17404;SDS011;8820;54.604;18.226;2024-01-25T01:39:56;27.47;;;6.33;;
17404;SDS011;8820;54.604;18.226;2024-01-25T01:42:27;30.97;;;6.30;;
17404;SDS011;8820;54.604;18.226;2024-01-25T01:44:56;23.30;;;5.87;;
17404;SDS011;8820;54.604;18.226;2024-01-25T01:47:24;23.90;;;5.40;;
17404;SDS011;8820;54.604;18.226;2024-01-25T01:49:53;22.97;;;6.47;;
17404;SDS011;8820;54.604;18.226;2024-01-25T01:52:21;24.70;;;6.60;;
17404;SDS011;8820;54.604;18.226;2024-01-25T01:54:50;29.27;;;6.43;;
17404;SDS011;8820;54.604;18.226;2024-01-25T01:57:18;25.47;;;6.10;;
17404;SDS011;8820;54.604;18.226;2024-01-25T01:59:49;18.97;;;5.93;;
17404;SDS011;8820;54.604;18.226;2024-01-25T02:02:18;28.40;;;7.73;;
17404;SDS011;8820;54.604;18.226;2024-01-25T02:04:46;19.83;;;6.17;;
17404;SDS011;8820;54.604;18.226;2024-01-25T02:07:14;21.57;;;6.20;;
17404;SDS011;8820;54.604;18.226;2024-01-25T02:09:43;19.90;;;5.70;;
17404;SDS011;8820;54.604;18.226;2024-01-25T02:12:14;22.40;;;5.67;;
17404;SDS011;8820;54.604;18.226;2024-01-25T02:14:43;20.33;;;5.17;;
17404;SDS011;8820;54.604;18.226;2024-01-25T02:17:14;18.13;;;4.87;;
17404;SDS011;8820;54.604;18.226;2024-01-25T02:19:42;28.43;;;5.60;;
17404;SDS011;8820;54.604;18.226;2024-01-25T02:24:45;21.17;;;4.87;;
17404;SDS011;8820;54.604;18.226;2024-01-25T02:27:14;23.67;;;5.73;;
17404;SDS011;8820;54.604;18.226;2024-01-25T02:29:42;24.77;;;5.47;;
17404;SDS011;8820;54.604;18.226;2024-01-25T02:32:10;23.30;;;5.97;;
17404;SDS011;8820;54.604;18.226;2024-01-25T02:34:39;18.83;;;5.17;;
17404;SDS011;8820;54.604;18.226;2024-01-25T02:37:07;12.10;;;4.60;;
17404;SDS011;8820;54.604;18.226;2024-01-25T02:39:37;21.20;;;5.33;;
17404;SDS011;8820;54.604;18.226;2024-01-25T02:42:07;24.33;;;5.80;;
17404;SDS011;8820;54.604;18.226;2024-01-25T02:44:35;23.37;;;5.60;;
17404;SDS011;8820;54.604;18.226;2024-01-25T02:47:04;30.83;;;6.47;;
17404;SDS011;8820;54.604;18.226;2024-01-25T02:49:32;20.87;;;5.50;;
17404;SDS011;8820;54.604;18.226;2024-01-25T02:52:01;21.53;;;4.93;;
17404;SDS011;8820;54.604;18.226;2024-01-25T02:54:30;22.17;;;4.97;;
17404;SDS011;8820;54.604;18.226;2024-01-25T02:57:03;23.20;;;6.50;;
17404;SDS011;8820;54.604;18.226;2024-01-25T02:59:33;23.60;;;5.90;;
17404;SDS011;8820;54.604;18.226;2024-01-25T03:02:01;20.27;;;5.20;;
17404;SDS011;8820;54.604;18.226;2024-01-25T03:04:29;15.93;;;4.43;;
17404;SDS011;8820;54.604;18.226;2024-01-25T03:06:58;18.43;;;5.33;;
17404;SDS011;8820;54.604;18.226;2024-01-25T03:09:26;21.43;;;5.53;;
17404;SDS011;8820;54.604;18.226;2024-01-25T03:11:54;18.57;;;4.47;;
17404;SDS011;8820;54.604;18.226;2024-01-25T03:14:23;23.97;;;5.23;;
17404;SDS011;8820;54.604;18.226;2024-01-25T03:16:52;20.47;;;5.27;;
17404;SDS011;8820;54.604;18.226;2024-01-25T03:19:22;13.87;;;4.87;;
17404;SDS011;8820;54.604;18.226;2024-01-25T03:21:52;18.50;;;5.23;;
17404;SDS011;8820;54.604;18.226;2024-01-25T03:24:21;21.30;;;4.93;;
17404;SDS011;8820;54.604;18.226;2024-01-25T03:26:50;13.87;;;4.13;;
17404;SDS011;8820;54.604;18.226;2024-01-25T03:29:19;15.37;;;3.87;;
17404;SDS011;8820;54.604;18.226;2024-01-25T03:31:47;14.17;;;4.30;;
17404;SDS011;8820;54.604;18.226;2024-01-25T03:34:17;13.67;;;4.90;;
17404;SDS011;8820;54.604;18.226;2024-01-25T03:36:46;18.37;;;5.20;;
17404;SDS011;8820;54.604;18.226;2024-01-25T03:39:14;15.63;;;4.33;;
17404;SDS011;8820;54.604;18.226;2024-01-25T03:41:43;13.87;;;4.23;;
17404;SDS011;8820;54.604;18.226;2024-01-25T03:44:12;18.90;;;5.13;;
17404;SDS011;8820;54.604;18.226;2024-01-25T03:46:40;15.20;;;4.17;;
17404;SDS011;8820;54.604;18.226;2024-01-25T03:49:08;15.87;;;5.10;;
17404;SDS011;8820;54.604;18.226;2024-01-25T03:51:38;22.03;;;5.10;;
17404;SDS011;8820;54.604;18.226;2024-01-25T03:54:06;15.77;;;5.33;;
17404;SDS011;8820;54.604;18.226;2024-01-25T03:56:35;19.43;;;5.30;;
17404;SDS011;8820;54.604;18.226;2024-01-25T03:59:03;21.33;;;5.30;;
17404;SDS011;8820;54.604;18.226;2024-01-25T04:01:40;25.90;;;6.10;;
17404;SDS011;8820;54.604;18.226;2024-01-25T04:04:10;27.17;;;5.43;;
17404;SDS011;8820;54.604;18.226;2024-01-25T04:06:42;29.17;;;5.77;;
17404;SDS011;8820;54.604;18.226;2024-01-25T04:09:12;22.27;;;5.27;;
17404;SDS011;8820;54.604;18.226;2024-01-25T04:11:41;16.50;;;4.83;;
17404;SDS011;8820;54.604;18.226;2024-01-25T04:14:09;18.07;;;4.90;;
17404;SDS011;8820;54.604;18.226;2024-01-25T04:16:38;18.63;;;5.00;;
17404;SDS011;8820;54.604;18.226;2024-01-25T04:19:07;15.33;;;4.27;;
17404;SDS011;8820;54.604;18.226;2024-01-25T04:21:38;14.07;;;4.77;;
17404;SDS011;8820;54.604;18.226;2024-01-25T04:24:08;13.57;;;3.37;;
17404;SDS011;8820;54.604;18.226;2024-01-25T04:26:37;13.73;;;4.00;;
17404;SDS011;8820;54.604;18.226;2024-01-25T04:29:05;14.77;;;4.00;;
17404;SDS011;8820;54.604;18.226;2024-01-25T04:31:33;7.97;;;3.03;;
17404;SDS011;8820;54.604;18.226;2024-01-25T04:34:02;10.83;;;3.77;;
17404;SDS011;8820;54.604;18.226;2024-01-25T04:36:30;9.27;;;3.67;;
17404;SDS011;8820;54.604;18.226;2024-01-25T04:38:58;10.37;;;4.07;;
17404;SDS011;8820;54.604;18.226;2024-01-25T04:41:28;11.87;;;4.10;;
17404;SDS011;8820;54.604;18.226;2024-01-25T04:43:56;12.50;;;4.47;;
17404;SDS011;8820;54.604;18.226;2024-01-25T04:46:25;11.97;;;3.63;;
17404;SDS011;8820;54.604;18.226;2024-01-25T04:48:53;15.43;;;3.97;;
17404;SDS011;8820;54.604;18.226;2024-01-25T04:51:21;12.73;;;4.43;;
17404;SDS011;8820;54.604;18.226;2024-01-25T04:53:50;11.83;;;4.73;;
17404;SDS011;8820;54.604;18.226;2024-01-25T04:56:18;13.03;;;4.17;;
17404;SDS011;8820;54.604;18.226;2024-01-25T04:58:48;11.73;;;4.23;;
17404;SDS011;8820;54.604;18.226;2024-01-25T05:01:16;11.07;;;3.90;;
17404;SDS011;8820;54.604;18.226;2024-01-25T05:03:44;11.47;;;3.90;;
17404;SDS011;8820;54.604;18.226;2024-01-25T05:06:13;12.43;;;3.87;;
17404;SDS011;8820;54.604;18.226;2024-01-25T05:08:41;10.97;;;3.07;;
17404;SDS011;8820;54.604;18.226;2024-01-25T05:11:10;10.73;;;3.30;;
17404;SDS011;8820;54.604;18.226;2024-01-25T05:13:38;17.67;;;3.97;;
17404;SDS011;8820;54.604;18.226;2024-01-25T05:16:08;10.80;;;3.50;;
17404;SDS011;8820;54.604;18.226;2024-01-25T05:18:36;5.80;;;2.97;;
17404;SDS011;8820;54.604;18.226;2024-01-25T05:21:05;12.03;;;3.13;;
17404;SDS011;8820;54.604;18.226;2024-01-25T05:23:33;6.77;;;2.80;;
17404;SDS011;8820;54.604;18.226;2024-01-25T05:26:02;10.60;;;3.53;;
17404;SDS011;8820;54.604;18.226;2024-01-25T05:28:30;10.83;;;3.20;;
17404;SDS011;8820;54.604;18.226;2024-01-25T05:30:59;9.93;;;3.67;;
17404;SDS011;8820;54.604;18.226;2024-01-25T05:33:30;13.57;;;4.30;;
17404;SDS011;8820;54.604;18.226;2024-01-25T05:35:58;13.63;;;3.47;;
17404;SDS011;8820;54.604;18.226;2024-01-25T05:38:27;8.00;;;3.67;;
17404;SDS011;8820;54.604;18.226;2024-01-25T05:40:55;11.90;;;4.10;;
17404;SDS011;8820;54.604;18.226;2024-01-25T05:43:23;12.33;;;4.13;;
17404;SDS011;8820;54.604;18.226;2024-01-25T05:45:52;9.93;;;4.13;;
17404;SDS011;8820;54.604;18.226;2024-01-25T05:48:20;15.33;;;4.83;;
17404;SDS011;8820;54.604;18.226;2024-01-25T05:50:50;12.10;;;3.73;;
17404;SDS011;8820;54.604;18.226;2024-01-25T05:53:18;14.17;;;4.20;;
17404;SDS011;8820;54.604;18.226;2024-01-25T05:55:47;20.40;;;4.10;;
17404;SDS011;8820;54.604;18.226;2024-01-25T05:58:16;18.00;;;5.20;;
17404;SDS011;8820;54.604;18.226;2024-01-25T06:00:44;13.93;;;4.53;;
17404;SDS011;8820;54.604;18.226;2024-01-25T06:03:13;17.90;;;5.47;;
17404;SDS011;8820;54.604;18.226;2024-01-25T06:05:41;11.83;;;4.33;;
17404;SDS011;8820;54.604;18.226;2024-01-25T06:08:11;15.27;;;4.80;;
17404;SDS011;8820;54.604;18.226;2024-01-25T06:10:39;22.03;;;5.03;;
17404;SDS011;8820;54.604;18.226;2024-01-25T06:13:08;19.43;;;4.47;;
17404;SDS011;8820;54.604;18.226;2024-01-25T06:15:36;14.43;;;4.30;;
17404;SDS011;8820;54.604;18.226;2024-01-25T06:18:05;15.80;;;4.43;;
17404;SDS011;8820;54.604;18.226;2024-01-25T06:20:34;15.23;;;4.27;;
17404;SDS011;8820;54.604;18.226;2024-01-25T06:23:02;10.20;;;3.87;;
17404;SDS011;8820;54.604;18.226;2024-01-25T06:25:32;13.27;;;4.13;;
17404;SDS011;8820;54.604;18.226;2024-01-25T06:28:01;9.80;;;4.07;;
17404;SDS011;8820;54.604;18.226;2024-01-25T06:30:30;13.47;;;4.23;;
17404;SDS011;8820;54.604;18.226;2024-01-25T06:32:58;8.17;;;3.03;;
17404;SDS011;8820;54.604;18.226;2024-01-25T06:35:27;11.10;;;4.43;;
17404;SDS011;8820;54.604;18.226;2024-01-25T06:37:55;16.20;;;5.60;;
17404;SDS011;8820;54.604;18.226;2024-01-25T06:40:23;14.43;;;6.27;;
17404;SDS011;8820;54.604;18.226;2024-01-25T06:42:53;12.43;;;6.30;;
17404;SDS011;8820;54.604;18.226;2024-01-25T06:45:21;11.20;;;5.20;;
17404;SDS011;8820;54.604;18.226;2024-01-25T06:47:50;4.77;;;3.53;;
17404;SDS011;8820;54.604;18.226;2024-01-25T06:50:18;3.77;;;2.63;;
17404;SDS011;8820;54.604;18.226;2024-01-25T06:52:46;2.23;;;2.10;;
17404;SDS011;8820;54.604;18.226;2024-01-25T06:55:15;3.17;;;2.60;;
17404;SDS011;8820;54.604;18.226;2024-01-25T06:57:43;4.27;;;3.87;;
17404;SDS011;8820;54.604;18.226;2024-01-25T07:00:15;5.47;;;3.90;;
17404;SDS011;8820;54.604;18.226;2024-01-25T07:02:45;3.53;;;2.57;;
17404;SDS011;8820;54.604;18.226;2024-01-25T07:05:13;4.80;;;4.10;;
17404;SDS011;8820;54.604;18.226;2024-01-25T07:07:42;5.97;;;3.50;;
17404;SDS011;8820;54.604;18.226;2024-01-25T07:10:10;3.97;;;3.10;;
17404;SDS011;8820;54.604;18.226;2024-01-25T07:12:39;2.77;;;2.40;;
17404;SDS011;8820;54.604;18.226;2024-01-25T07:15:07;3.30;;;2.90;;
17404;SDS011;8820;54.604;18.226;2024-01-25T07:17:37;2.83;;;2.63;;
17404;SDS011;8820;54.604;18.226;2024-01-25T07:20:06;3.97;;;3.07;;
17404;SDS011;8820;54.604;18.226;2024-01-25T07:22:35;4.33;;;3.77;;
17404;SDS011;8820;54.604;18.226;2024-01-25T07:25:03;3.57;;;2.67;;
17404;SDS011;8820;54.604;18.226;2024-01-25T07:27:33;3.43;;;2.90;;
17404;SDS011;8820;54.604;18.226;2024-01-25T07:30:01;5.03;;;3.10;;
17404;SDS011;8820;54.604;18.226;2024-01-25T07:32:29;2.23;;;2.13;;
17404;SDS011;8820;54.604;18.226;2024-01-25T07:35:00;2.47;;;2.27;;
17404;SDS011;8820;54.604;18.226;2024-01-25T07:37:28;3.97;;;3.10;;
17404;SDS011;8820;54.604;18.226;2024-01-25T07:39:57;5.60;;;4.70;;
17404;SDS011;8820;54.604;18.226;2024-01-25T07:42:25;2.97;;;2.73;;
17404;SDS011;8820;54.604;18.226;2024-01-25T07:44:54;3.17;;;2.90;;
17404;SDS011;8820;54.604;18.226;2024-01-25T07:47:22;3.03;;;2.77;;
17404;SDS011;8820;54.604;18.226;2024-01-25T07:49:50;3.23;;;3.00;;
17404;SDS011;8820;54.604;18.226;2024-01-25T07:52:20;4.87;;;3.83;;
17404;SDS011;8820;54.604;18.226;2024-01-25T07:54:51;6.77;;;3.27;;
17404;SDS011;8820;54.604;18.226;2024-01-25T07:57:20;7.17;;;3.97;;
17404;SDS011;8820;54.604;18.226;2024-01-25T07:59:48;8.77;;;4.63;;
17404;SDS011;8820;54.604;18.226;2024-01-25T08:02:16;8.50;;;5.43;;
17404;SDS011;8820;54.604;18.226;2024-01-25T08:04:47;8.80;;;5.03;;
17404;SDS011;8820;54.604;18.226;2024-01-25T08:07:15;8.23;;;5.33;;
17404;SDS011;8820;54.604;18.226;2024-01-25T08:09:45;8.40;;;4.70;;
17404;SDS011;8820;54.604;18.226;2024-01-25T08:12:13;4.30;;;3.60;;
17404;SDS011;8820;54.604;18.226;2024-01-25T08:14:42;6.13;;;4.00;;
17404;SDS011;8820;54.604;18.226;2024-01-25T08:17:10;4.13;;;3.03;;
17404;SDS011;8820;54.604;18.226;2024-01-25T08:19:38;3.33;;;3.03;;
17404;SDS011;8820;54.604;18.226;2024-01-25T08:22:07;4.27;;;2.83;;
17404;SDS011;8820;54.604;18.226;2024-01-25T08:24:36;3.73;;;3.33;;
17404;SDS011;8820;54.604;18.226;2024-01-25T08:27:07;3.93;;;3.63;;
17404;SDS011;8820;54.604;18.226;2024-01-25T08:31:54;5.33;;;3.90;;
17404;SDS011;8820;54.604;18.226;2024-01-25T08:34:22;4.10;;;3.40;;
17404;SDS011;8820;54.604;18.226;2024-01-25T08:36:52;6.13;;;3.67;;
17404;SDS011;8820;54.604;18.226;2024-01-25T08:39:20;3.50;;;3.03;;
17404;SDS011;8820;54.604;18.226;2024-01-25T08:41:48;4.80;;;3.43;;
17404;SDS011;8820;54.604;18.226;2024-01-25T08:44:16;7.10;;;5.03;;
17404;SDS011;8820;54.604;18.226;2024-01-25T08:46:45;7.30;;;3.67;;
17404;SDS011;8820;54.604;18.226;2024-01-25T08:49:14;2.60;;;2.40;;
17404;SDS011;8820;54.604;18.226;2024-01-25T08:51:43;2.80;;;2.60;;
17404;SDS011;8820;54.604;18.226;2024-01-25T08:54:11;3.77;;;3.43;;
17404;SDS011;8820;54.604;18.226;2024-01-25T08:56:40;3.67;;;3.20;;
17404;SDS011;8820;54.604;18.226;2024-01-25T08:59:08;4.00;;;3.53;;
17404;SDS011;8820;54.604;18.226;2024-01-25T09:01:36;5.37;;;3.73;;
17404;SDS011;8820;54.604;18.226;2024-01-25T09:04:05;4.77;;;3.80;;
17404;SDS011;8820;54.604;18.226;2024-01-25T09:06:35;3.80;;;3.40;;
17404;SDS011;8820;54.604;18.226;2024-01-25T09:09:04;5.67;;;4.77;;
17404;SDS011;8820;54.604;18.226;2024-01-25T09:11:32;7.37;;;4.87;;
17404;SDS011;8820;54.604;18.226;2024-01-25T09:14:00;4.33;;;3.93;;
17404;SDS011;8820;54.604;18.226;2024-01-25T09:16:29;4.70;;;4.27;;
17404;SDS011;8820;54.604;18.226;2024-01-25T09:18:57;4.47;;;3.73;;
17404;SDS011;8820;54.604;18.226;2024-01-25T09:21:26;6.30;;;4.30;;
17404;SDS011;8820;54.604;18.226;2024-01-25T09:23:56;8.47;;;5.03;;
17404;SDS011;8820;54.604;18.226;2024-01-25T09:26:24;14.63;;;7.33;;
17404;SDS011;8820;54.604;18.226;2024-01-25T09:28:52;13.17;;;6.60;;
17404;SDS011;8820;54.604;18.226;2024-01-25T09:31:21;15.33;;;7.33;;
17404;SDS011;8820;54.604;18.226;2024-01-25T09:33:49;10.70;;;5.80;;
17404;SDS011;8820;54.604;18.226;2024-01-25T09:36:18;7.93;;;5.37;;
17404;SDS011;8820;54.604;18.226;2024-01-25T09:38:46;7.80;;;5.10;;
17404;SDS011;8820;54.604;18.226;2024-01-25T09:41:18;7.53;;;4.37;;
17404;SDS011;8820;54.604;18.226;2024-01-25T09:43:46;10.83;;;6.10;;
17404;SDS011;8820;54.604;18.226;2024-01-25T09:46:14;14.63;;;7.87;;
17404;SDS011;8820;54.604;18.226;2024-01-25T09:48:44;11.13;;;7.00;;
17404;SDS011;8820;54.604;18.226;2024-01-25T09:51:14;13.30;;;6.00;;
17404;SDS011;8820;54.604;18.226;2024-01-25T09:53:43;6.90;;;4.63;;
17404;SDS011;8820;54.604;18.226;2024-01-25T09:56:20;6.50;;;4.30;;
17404;SDS011;8820;54.604;18.226;2024-01-25T09:58:52;5.00;;;3.70;;
17404;SDS011;8820;54.604;18.226;2024-01-25T10:01:20;4.83;;;2.77;;
17404;SDS011;8820;54.604;18.226;2024-01-25T10:03:49;6.70;;;6.07;;
17404;SDS011;8820;54.604;18.226;2024-01-25T10:06:17;5.07;;;3.67;;
17404;SDS011;8820;54.604;18.226;2024-01-25T10:08:47;5.50;;;3.43;;
17404;SDS011;8820;54.604;18.226;2024-01-25T10:11:16;3.93;;;3.23;;
17404;SDS011;8820;54.604;18.226;2024-01-25T10:13:46;3.70;;;2.20;;
17404;SDS011;8820;54.604;18.226;2024-01-25T10:16:17;3.80;;;3.27;;
17404;SDS011;8820;54.604;18.226;2024-01-25T10:18:46;4.23;;;3.67;;
17404;SDS011;8820;54.604;18.226;2024-01-25T10:21:15;4.03;;;3.63;;
17404;SDS011;8820;54.604;18.226;2024-01-25T10:23:45;4.63;;;3.40;;
17404;SDS011;8820;54.604;18.226;2024-01-25T10:26:14;6.40;;;4.30;;
17404;SDS011;8820;54.604;18.226;2024-01-25T10:28:51;7.03;;;4.03;;
17404;SDS011;8820;54.604;18.226;2024-01-25T10:31:23;4.90;;;3.10;;
17404;SDS011;8820;54.604;18.226;2024-01-25T10:33:52;8.23;;;3.80;;
17404;SDS011;8820;54.604;18.226;2024-01-25T10:36:22;2.87;;;2.67;;
17404;SDS011;8820;54.604;18.226;2024-01-25T10:38:51;7.90;;;5.20;;
17404;SDS011;8820;54.604;18.226;2024-01-25T10:41:22;7.90;;;4.77;;
17404;SDS011;8820;54.604;18.226;2024-01-25T10:43:55;3.83;;;3.27;;
17404;SDS011;8820;54.604;18.226;2024-01-25T10:46:23;3.00;;;2.50;;
17404;SDS011;8820;54.604;18.226;2024-01-25T10:48:55;3.60;;;2.70;;
17404;SDS011;8820;54.604;18.226;2024-01-25T10:51:25;4.23;;;2.90;;
17404;SDS011;8820;54.604;18.226;2024-01-25T10:53:56;3.13;;;2.70;;
17404;SDS011;8820;54.604;18.226;2024-01-25T10:56:25;2.70;;;2.50;;
17404;SDS011;8820;54.604;18.226;2024-01-25T10:58:55;3.03;;;2.60;;
17404;SDS011;8820;54.604;18.226;2024-01-25T11:01:23;3.17;;;2.50;;
17404;SDS011;8820;54.604;18.226;2024-01-25T11:03:52;2.70;;;2.40;;
17404;SDS011;8820;54.604;18.226;2024-01-25T11:06:21;2.97;;;1.97;;
17404;SDS011;8820;54.604;18.226;2024-01-25T11:08:50;4.00;;;3.67;;
17404;SDS011;8820;54.604;18.226;2024-01-25T11:11:18;3.43;;;2.90;;
17404;SDS011;8820;54.604;18.226;2024-01-25T11:13:49;3.83;;;3.30;;
17404;SDS011;8820;54.604;18.226;2024-01-25T11:16:28;3.87;;;2.60;;
17404;SDS011;8820;54.604;18.226;2024-01-25T11:18:58;3.27;;;2.97;;
17404;SDS011;8820;54.604;18.226;2024-01-25T11:21:38;2.60;;;2.20;;
17404;SDS011;8820;54.604;18.226;2024-01-25T11:24:11;2.73;;;2.53;;
17404;SDS011;8820;54.604;18.226;2024-01-25T11:26:42;3.40;;;3.10;;
17404;SDS011;8820;54.604;18.226;2024-01-25T11:29:12;3.30;;;2.53;;
17404;SDS011;8820;54.604;18.226;2024-01-25T11:31:44;2.70;;;2.50;;
17404;SDS011;8820;54.604;18.226;2024-01-25T11:34:13;4.40;;;3.33;;
17404;SDS011;8820;54.604;18.226;2024-01-25T11:36:43;2.93;;;2.73;;
17404;SDS011;8820;54.604;18.226;2024-01-25T11:39:15;2.83;;;2.60;;
17404;SDS011;8820;54.604;18.226;2024-01-25T11:41:44;4.00;;;2.40;;
17404;SDS011;8820;54.604;18.226;2024-01-25T11:44:13;2.40;;;2.00;;
17404;SDS011;8820;54.604;18.226;2024-01-25T11:46:42;3.13;;;2.90;;
17404;SDS011;8820;54.604;18.226;2024-01-25T11:49:12;3.67;;;2.60;;
17404;SDS011;8820;54.604;18.226;2024-01-25T11:51:40;2.70;;;2.50;;
17404;SDS011;8820;54.604;18.226;2024-01-25T11:54:09;4.10;;;3.20;;
17404;SDS011;8820;54.604;18.226;2024-01-25T11:56:38;5.33;;;2.93;;
17404;SDS011;8820;54.604;18.226;2024-01-25T11:59:08;4.93;;;2.90;;
17404;SDS011;8820;54.604;18.226;2024-01-25T12:01:37;5.37;;;4.00;;
17404;SDS011;8820;54.604;18.226;2024-01-25T12:04:07;3.10;;;2.83;;
17404;SDS011;8820;54.604;18.226;2024-01-25T12:06:37;2.60;;;2.40;;
17404;SDS011;8820;54.604;18.226;2024-01-25T12:09:07;5.70;;;4.13;;
17404;SDS011;8820;54.604;18.226;2024-01-25T12:11:36;3.60;;;3.00;;
17404;SDS011;8820;54.604;18.226;2024-01-25T12:14:04;2.50;;;2.30;;
17404;SDS011;8820;54.604;18.226;2024-01-25T12:16:35;2.27;;;1.93;;
17404;SDS011;8820;54.604;18.226;2024-01-25T12:19:04;4.40;;;2.90;;
17404;SDS011;8820;54.604;18.226;2024-01-25T12:21:33;2.33;;;2.13;;
17404;SDS011;8820;54.604;18.226;2024-01-25T12:24:03;3.00;;;2.50;;
17404;SDS011;8820;54.604;18.226;2024-01-25T12:26:33;2.30;;;2.20;;
17404;SDS011;8820;54.604;18.226;2024-01-25T12:29:05;4.33;;;3.50;;
17404;SDS011;8820;54.604;18.226;2024-01-25T12:31:34;2.97;;;2.13;;
17404;SDS011;8820;54.604;18.226;2024-01-25T12:34:03;2.80;;;2.30;;
17404;SDS011;8820;54.604;18.226;2024-01-25T12:36:40;3.97;;;2.80;;
17404;SDS011;8820;54.604;18.226;2024-01-25T12:39:10;9.90;;;6.43;;
17404;SDS011;8820;54.604;18.226;2024-01-25T12:41:42;3.80;;;2.90;;
17404;SDS011;8820;54.604;18.226;2024-01-25T12:44:11;3.90;;;3.23;;
17404;SDS011;8820;54.604;18.226;2024-01-25T12:46:39;3.20;;;2.60;;
17404;SDS011;8820;54.604;18.226;2024-01-25T12:49:07;3.63;;;3.33;;
17404;SDS011;8820;54.604;18.226;2024-01-25T12:51:36;2.90;;;2.70;;
17404;SDS011;8820;54.604;18.226;2024-01-25T12:54:04;2.90;;;2.60;;
17404;SDS011;8820;54.604;18.226;2024-01-25T12:56:34;4.20;;;3.80;;
17404;SDS011;8820;54.604;18.226;2024-01-25T12:59:03;4.63;;;4.17;;
17404;SDS011;8820;54.604;18.226;2024-01-25T13:01:31;2.60;;;2.40;;
17404;SDS011;8820;54.604;18.226;2024-01-25T13:04:00;3.20;;;2.90;;
17404;SDS011;8820;54.604;18.226;2024-01-25T13:06:28;4.03;;;2.40;;
17404;SDS011;8820;54.604;18.226;2024-01-25T13:08:57;2.80;;;2.13;;
17404;SDS011;8820;54.604;18.226;2024-01-25T13:11:25;2.37;;;2.17;;
17404;SDS011;8820;54.604;18.226;2024-01-25T13:13:55;3.00;;;2.70;;
17404;SDS011;8820;54.604;18.226;2024-01-25T13:16:26;2.73;;;2.53;;
17404;SDS011;8820;54.604;18.226;2024-01-25T13:18:55;2.23;;;2.13;;
17404;SDS011;8820;54.604;18.226;2024-01-25T13:21:23;2.63;;;2.50;;
17404;SDS011;8820;54.604;18.226;2024-01-25T13:23:52;2.10;;;1.97;;
17404;SDS011;8820;54.604;18.226;2024-01-25T13:26:20;2.37;;;2.10;;
17404;SDS011;8820;54.604;18.226;2024-01-25T13:28:48;3.10;;;2.83;;
17404;SDS011;8820;54.604;18.226;2024-01-25T13:31:18;7.60;;;4.30;;
17404;SDS011;8820;54.604;18.226;2024-01-25T13:33:46;4.17;;;3.27;;
17404;SDS011;8820;54.604;18.226;2024-01-25T13:36:15;4.20;;;3.10;;
17404;SDS011;8820;54.604;18.226;2024-01-25T13:38:43;10.67;;;8.30;;
17404;SDS011;8820;54.604;18.226;2024-01-25T13:41:12;3.47;;;2.67;;
17404;SDS011;8820;54.604;18.226;2024-01-25T13:43:40;3.57;;;3.07;;
17404;SDS011;8820;54.604;18.226;2024-01-25T13:46:08;3.67;;;2.87;;
17404;SDS011;8820;54.604;18.226;2024-01-25T13:48:38;7.43;;;3.33;;
17404;SDS011;8820;54.604;18.226;2024-01-25T13:51:07;5.03;;;3.43;;
17404;SDS011;8820;54.604;18.226;2024-01-25T13:53:35;3.13;;;2.80;;
17404;SDS011;8820;54.604;18.226;2024-01-25T13:56:04;3.50;;;2.83;;
17404;SDS011;8820;54.604;18.226;2024-01-25T13:58:32;3.50;;;3.00;;
17404;SDS011;8820;54.604;18.226;2024-01-25T14:01:01;2.83;;;2.63;;
17404;SDS011;8820;54.604;18.226;2024-01-25T14:03:29;3.70;;;3.07;;
17404;SDS011;8820;54.604;18.226;2024-01-25T14:05:59;5.43;;;3.13;;
17404;SDS011;8820;54.604;18.226;2024-01-25T14:08:30;7.63;;;3.57;;
17404;SDS011;8820;54.604;18.226;2024-01-25T14:10:59;6.93;;;4.70;;
17404;SDS011;8820;54.604;18.226;2024-01-25T14:13:27;7.27;;;4.37;;
17404;SDS011;8820;54.604;18.226;2024-01-25T14:15:55;5.27;;;4.00;;
17404;SDS011;8820;54.604;18.226;2024-01-25T14:18:26;5.00;;;3.70;;
17404;SDS011;8820;54.604;18.226;2024-01-25T14:20:55;6.80;;;4.07;;
17404;SDS011;8820;54.604;18.226;2024-01-25T14:23:24;4.33;;;3.67;;
17404;SDS011;8820;54.604;18.226;2024-01-25T14:25:53;7.50;;;4.70;;
17404;SDS011;8820;54.604;18.226;2024-01-25T14:28:21;9.83;;;6.53;;
17404;SDS011;8820;54.604;18.226;2024-01-25T14:30:50;7.70;;;5.17;;
17404;SDS011;8820;54.604;18.226;2024-01-25T14:33:18;4.63;;;3.90;;
17404;SDS011;8820;54.604;18.226;2024-01-25T14:35:46;6.57;;;4.27;;
17404;SDS011;8820;54.604;18.226;2024-01-25T14:38:15;3.83;;;3.47;;
17404;SDS011;8820;54.604;18.226;2024-01-25T14:40:45;2.77;;;2.57;;
17404;SDS011;8820;54.604;18.226;2024-01-25T14:43:18;2.57;;;2.37;;
17404;SDS011;8820;54.604;18.226;2024-01-25T14:45:47;4.93;;;3.23;;
17404;SDS011;8820;54.604;18.226;2024-01-25T14:48:15;4.80;;;3.10;;
17404;SDS011;8820;54.604;18.226;2024-01-25T14:50:44;4.17;;;2.90;;
17404;SDS011;8820;54.604;18.226;2024-01-25T14:53:13;3.50;;;2.60;;
17404;SDS011;8820;54.604;18.226;2024-01-25T14:55:45;4.50;;;3.27;;